sensor_id;sensor_type;location;lat;lon;timestamp;temperature;humidity
22544;DHT22;11438;52.044;8.716;2022-09-09T00:04:34;19.40;91.70
22544;DHT22;11438;52.044;8.716;2022-09-09T00:09:36;19.40;91.90
22544;DHT22;11438;52.044;8.716;2022-09-09T00:12:23;19.40;91.90
22544;DHT22;11438;52.044;8.716;2022-09-09T00:14:58;19.40;91.90
22544;DHT22;11438;52.044;8.716;2022-09-09T00:17:34;19.50;91.90
22544;DHT22;11438;52.044;8.716;2022-09-09T00:20:12;19.50;91.90
22544;DHT22;11438;52.044;8.716;2022-09-09T00:22:52;19.50;91.90
22544;DHT22;11438;52.044;8.716;2022-09-09T00:25:26;19.50;91.90
22544;DHT22;11438;52.044;8.716;2022-09-09T00:27:52;19.50;91.90
22544;DHT22;11438;52.044;8.716;2022-09-09T00:30:32;19.60;91.90
22544;DHT22;11438;52.044;8.716;2022-09-09T00:33:03;19.50;92.30
22544;DHT22;11438;52.044;8.716;2022-09-09T00:35:37;19.60;91.90
22544;DHT22;11438;52.044;8.716;2022-09-09T00:38:19;19.60;91.90
22544;DHT22;11438;52.044;8.716;2022-09-09T00:40:50;19.60;91.90
22544;DHT22;11438;52.044;8.716;2022-09-09T00:43:36;19.60;92.00
22544;DHT22;11438;52.044;8.716;2022-09-09T00:59:54;19.80;91.90
22544;DHT22;11438;52.044;8.716;2022-09-09T01:02:25;19.80;91.90
22544;DHT22;11438;52.044;8.716;2022-09-09T01:04:53;19.80;91.80
22544;DHT22;11438;52.044;8.716;2022-09-09T01:07:19;19.80;91.90
22544;DHT22;11438;52.044;8.716;2022-09-09T01:09:52;19.80;91.80
22544;DHT22;11438;52.044;8.716;2022-09-09T01:12:41;19.80;91.80
22544;DHT22;11438;52.044;8.716;2022-09-09T01:15:24;19.80;91.80
22544;DHT22;11438;52.044;8.716;2022-09-09T01:18:00;19.80;91.70
22544;DHT22;11438;52.044;8.716;2022-09-09T01:20:41;19.80;91.70
22544;DHT22;11438;52.044;8.716;2022-09-09T01:26:15;19.80;91.70
22544;DHT22;11438;52.044;8.716;2022-09-09T01:28:45;19.80;91.80
22544;DHT22;11438;52.044;8.716;2022-09-09T01:31:15;19.80;91.70
22544;DHT22;11438;52.044;8.716;2022-09-09T01:33:42;19.70;91.70
22544;DHT22;11438;52.044;8.716;2022-09-09T01:36:26;19.70;91.70
22544;DHT22;11438;52.044;8.716;2022-09-09T01:38:55;19.70;91.70
22544;DHT22;11438;52.044;8.716;2022-09-09T01:41:21;19.70;91.70
22544;DHT22;11438;52.044;8.716;2022-09-09T01:43:47;19.70;91.70
22544;DHT22;11438;52.044;8.716;2022-09-09T01:46:13;19.70;91.80
22544;DHT22;11438;52.044;8.716;2022-09-09T01:48:39;19.70;91.90
22544;DHT22;11438;52.044;8.716;2022-09-09T01:51:07;19.60;91.90
22544;DHT22;11438;52.044;8.716;2022-09-09T01:53:32;19.60;92.00
22544;DHT22;11438;52.044;8.716;2022-09-09T02:01:18;19.60;92.10
22544;DHT22;11438;52.044;8.716;2022-09-09T02:03:54;19.60;92.20
22544;DHT22;11438;52.044;8.716;2022-09-09T02:06:28;19.60;92.30
22544;DHT22;11438;52.044;8.716;2022-09-09T02:08:56;19.60;92.20
22544;DHT22;11438;52.044;8.716;2022-09-09T02:11:27;19.70;92.60
22544;DHT22;11438;52.044;8.716;2022-09-09T02:14:05;19.70;92.30
22544;DHT22;11438;52.044;8.716;2022-09-09T02:16:48;19.70;92.20
22544;DHT22;11438;52.044;8.716;2022-09-09T02:19:22;19.70;92.10
22544;DHT22;11438;52.044;8.716;2022-09-09T02:21:52;19.70;92.10
22544;DHT22;11438;52.044;8.716;2022-09-09T02:24:20;19.70;92.00
22544;DHT22;11438;52.044;8.716;2022-09-09T02:26:49;19.70;92.00
22544;DHT22;11438;52.044;8.716;2022-09-09T02:29:20;19.70;91.90
22544;DHT22;11438;52.044;8.716;2022-09-09T02:31:47;19.70;91.90
22544;DHT22;11438;52.044;8.716;2022-09-09T02:34:16;19.70;91.90
22544;DHT22;11438;52.044;8.716;2022-09-09T02:36:44;19.70;91.90
22544;DHT22;11438;52.044;8.716;2022-09-09T02:39:11;19.60;91.80
22544;DHT22;11438;52.044;8.716;2022-09-09T02:41:39;19.60;91.90
22544;DHT22;11438;52.044;8.716;2022-09-09T02:44:10;19.60;91.90
22544;DHT22;11438;52.044;8.716;2022-09-09T02:49:43;19.60;92.00
22544;DHT22;11438;52.044;8.716;2022-09-09T02:52:15;19.60;92.00
22544;DHT22;11438;52.044;8.716;2022-09-09T02:54:44;19.60;92.00
22544;DHT22;11438;52.044;8.716;2022-09-09T02:57:17;19.60;92.10
22544;DHT22;11438;52.044;8.716;2022-09-09T02:59:45;19.60;92.20
22544;DHT22;11438;52.044;8.716;2022-09-09T03:02:12;19.50;92.20
22544;DHT22;11438;52.044;8.716;2022-09-09T03:04:38;19.60;92.30
22544;DHT22;11438;52.044;8.716;2022-09-09T03:07:04;19.50;92.30
22544;DHT22;11438;52.044;8.716;2022-09-09T03:09:30;19.60;92.30
22544;DHT22;11438;52.044;8.716;2022-09-09T03:12:02;19.60;92.40
22544;DHT22;11438;52.044;8.716;2022-09-09T03:14:29;19.60;92.30
22544;DHT22;11438;52.044;8.716;2022-09-09T03:16:56;19.60;92.40
22544;DHT22;11438;52.044;8.716;2022-09-09T03:19:23;19.60;92.50
22544;DHT22;11438;52.044;8.716;2022-09-09T03:21:49;19.60;92.50
22544;DHT22;11438;52.044;8.716;2022-09-09T03:24:14;19.60;92.50
22544;DHT22;11438;52.044;8.716;2022-09-09T03:26:41;19.60;92.60
22544;DHT22;11438;52.044;8.716;2022-09-09T03:29:07;19.60;92.60
22544;DHT22;11438;52.044;8.716;2022-09-09T03:31:35;19.60;92.60
22544;DHT22;11438;52.044;8.716;2022-09-09T03:34:02;19.60;92.60
22544;DHT22;11438;52.044;8.716;2022-09-09T03:36:28;19.60;92.60
22544;DHT22;11438;52.044;8.716;2022-09-09T03:38:54;19.60;92.60
22544;DHT22;11438;52.044;8.716;2022-09-09T03:41:23;19.60;92.60
22544;DHT22;11438;52.044;8.716;2022-09-09T03:43:53;19.60;92.60
22544;DHT22;11438;52.044;8.716;2022-09-09T03:46:20;19.60;92.60
22544;DHT22;11438;52.044;8.716;2022-09-09T03:48:45;19.60;92.70
22544;DHT22;11438;52.044;8.716;2022-09-09T03:51:11;19.60;92.70
22544;DHT22;11438;52.044;8.716;2022-09-09T03:53:37;19.60;92.70
22544;DHT22;11438;52.044;8.716;2022-09-09T03:56:04;19.60;92.70
22544;DHT22;11438;52.044;8.716;2022-09-09T03:58:33;19.60;92.70
22544;DHT22;11438;52.044;8.716;2022-09-09T04:01:03;19.60;92.70
22544;DHT22;11438;52.044;8.716;2022-09-09T04:03:29;19.60;92.70
22544;DHT22;11438;52.044;8.716;2022-09-09T04:05:57;19.60;92.70
22544;DHT22;11438;52.044;8.716;2022-09-09T04:08:23;19.60;92.80
22544;DHT22;11438;52.044;8.716;2022-09-09T04:10:53;19.60;92.70
22544;DHT22;11438;52.044;8.716;2022-09-09T04:13:19;19.60;92.70
22544;DHT22;11438;52.044;8.716;2022-09-09T04:15:51;19.60;92.70
22544;DHT22;11438;52.044;8.716;2022-09-09T04:18:18;19.60;92.80
22544;DHT22;11438;52.044;8.716;2022-09-09T04:20:52;19.60;92.70
22544;DHT22;11438;52.044;8.716;2022-09-09T04:23:18;19.60;92.80
22544;DHT22;11438;52.044;8.716;2022-09-09T04:25:46;19.60;92.80
22544;DHT22;11438;52.044;8.716;2022-09-09T04:28:13;19.60;92.80
22544;DHT22;11438;52.044;8.716;2022-09-09T04:30:39;19.60;92.80
22544;DHT22;11438;52.044;8.716;2022-09-09T04:33:05;19.60;92.90
22544;DHT22;11438;52.044;8.716;2022-09-09T04:35:32;19.60;92.90
22544;DHT22;11438;52.044;8.716;2022-09-09T04:37:58;19.60;92.90
22544;DHT22;11438;52.044;8.716;2022-09-09T04:40:24;19.60;92.90
22544;DHT22;11438;52.044;8.716;2022-09-09T04:42:50;19.70;93.00
22544;DHT22;11438;52.044;8.716;2022-09-09T04:45:16;19.70;93.00
22544;DHT22;11438;52.044;8.716;2022-09-09T04:47:42;19.70;93.10
22544;DHT22;11438;52.044;8.716;2022-09-09T04:50:08;19.70;93.20
22544;DHT22;11438;52.044;8.716;2022-09-09T04:52:35;19.70;93.30
22544;DHT22;11438;52.044;8.716;2022-09-09T04:55:01;19.80;93.40
22544;DHT22;11438;52.044;8.716;2022-09-09T04:57:26;19.80;93.40
22544;DHT22;11438;52.044;8.716;2022-09-09T04:59:52;19.80;93.40
22544;DHT22;11438;52.044;8.716;2022-09-09T05:02:17;19.80;93.40
22544;DHT22;11438;52.044;8.716;2022-09-09T05:04:43;19.80;93.50
22544;DHT22;11438;52.044;8.716;2022-09-09T05:07:08;19.80;93.50
22544;DHT22;11438;52.044;8.716;2022-09-09T05:09:34;19.80;93.50
22544;DHT22;11438;52.044;8.716;2022-09-09T05:12:00;19.80;93.60
22544;DHT22;11438;52.044;8.716;2022-09-09T05:14:25;19.80;93.60
22544;DHT22;11438;52.044;8.716;2022-09-09T05:16:52;19.80;93.70
22544;DHT22;11438;52.044;8.716;2022-09-09T05:19:18;19.80;93.70
22544;DHT22;11438;52.044;8.716;2022-09-09T05:21:45;19.80;93.70
22544;DHT22;11438;52.044;8.716;2022-09-09T05:24:11;19.80;93.80
22544;DHT22;11438;52.044;8.716;2022-09-09T05:26:36;19.80;93.80
22544;DHT22;11438;52.044;8.716;2022-09-09T05:29:02;19.80;93.90
22544;DHT22;11438;52.044;8.716;2022-09-09T05:31:30;19.80;93.80
22544;DHT22;11438;52.044;8.716;2022-09-09T05:33:55;19.80;93.80
22544;DHT22;11438;52.044;8.716;2022-09-09T05:36:22;19.80;93.80
22544;DHT22;11438;52.044;8.716;2022-09-09T05:38:49;19.80;93.90
22544;DHT22;11438;52.044;8.716;2022-09-09T05:41:16;19.80;93.90
22544;DHT22;11438;52.044;8.716;2022-09-09T05:43:43;19.80;93.90
22544;DHT22;11438;52.044;8.716;2022-09-09T05:46:17;19.80;94.00
22544;DHT22;11438;52.044;8.716;2022-09-09T05:48:45;19.80;94.00
22544;DHT22;11438;52.044;8.716;2022-09-09T05:51:17;19.80;94.00
22544;DHT22;11438;52.044;8.716;2022-09-09T05:53:44;19.80;94.10
22544;DHT22;11438;52.044;8.716;2022-09-09T05:56:13;19.80;94.10
22544;DHT22;11438;52.044;8.716;2022-09-09T05:58:42;19.80;94.20
22544;DHT22;11438;52.044;8.716;2022-09-09T06:01:18;19.80;94.10
22544;DHT22;11438;52.044;8.716;2022-09-09T06:03:45;19.80;94.20
22544;DHT22;11438;52.044;8.716;2022-09-09T06:06:13;19.80;94.10
22544;DHT22;11438;52.044;8.716;2022-09-09T06:08:41;19.80;94.20
22544;DHT22;11438;52.044;8.716;2022-09-09T06:11:18;19.80;94.20
22544;DHT22;11438;52.044;8.716;2022-09-09T06:13:44;19.80;94.30
22544;DHT22;11438;52.044;8.716;2022-09-09T06:16:14;19.80;94.30
22544;DHT22;11438;52.044;8.716;2022-09-09T06:18:41;19.80;94.30
22544;DHT22;11438;52.044;8.716;2022-09-09T06:21:16;19.80;94.30
22544;DHT22;11438;52.044;8.716;2022-09-09T06:23:42;19.90;94.50
22544;DHT22;11438;52.044;8.716;2022-09-09T06:26:17;19.80;94.50
22544;DHT22;11438;52.044;8.716;2022-09-09T06:28:44;19.90;94.60
22544;DHT22;11438;52.044;8.716;2022-09-09T06:31:12;19.90;94.90
22544;DHT22;11438;52.044;8.716;2022-09-09T06:33:39;19.90;94.60
22544;DHT22;11438;52.044;8.716;2022-09-09T06:36:07;20.00;94.60
22544;DHT22;11438;52.044;8.716;2022-09-09T06:38:35;20.00;94.60
22544;DHT22;11438;52.044;8.716;2022-09-09T06:41:01;20.00;94.60
22544;DHT22;11438;52.044;8.716;2022-09-09T06:43:28;20.10;94.60
22544;DHT22;11438;52.044;8.716;2022-09-09T06:48:20;20.10;94.60
22544;DHT22;11438;52.044;8.716;2022-09-09T06:50:45;20.20;94.70
22544;DHT22;11438;52.044;8.716;2022-09-09T06:53:11;20.30;94.70
22544;DHT22;11438;52.044;8.716;2022-09-09T06:55:37;20.30;94.70
22544;DHT22;11438;52.044;8.716;2022-09-09T06:58:02;20.30;94.60
22544;DHT22;11438;52.044;8.716;2022-09-09T07:00:32;20.40;94.60
22544;DHT22;11438;52.044;8.716;2022-09-09T07:02:58;20.40;95.00
22544;DHT22;11438;52.044;8.716;2022-09-09T07:05:23;20.50;94.60
22544;DHT22;11438;52.044;8.716;2022-09-09T07:07:49;20.50;94.60
22544;DHT22;11438;52.044;8.716;2022-09-09T07:10:15;20.60;94.60
22544;DHT22;11438;52.044;8.716;2022-09-09T07:12:41;20.60;94.60
22544;DHT22;11438;52.044;8.716;2022-09-09T07:15:06;20.70;94.50
22544;DHT22;11438;52.044;8.716;2022-09-09T07:17:32;20.70;94.50
22544;DHT22;11438;52.044;8.716;2022-09-09T07:19:58;20.70;94.40
22544;DHT22;11438;52.044;8.716;2022-09-09T07:22:23;20.80;94.50
22544;DHT22;11438;52.044;8.716;2022-09-09T07:24:49;20.80;94.60
22544;DHT22;11438;52.044;8.716;2022-09-09T07:27:15;20.90;94.50
22544;DHT22;11438;52.044;8.716;2022-09-09T07:29:40;21.00;94.40
22544;DHT22;11438;52.044;8.716;2022-09-09T07:32:06;21.00;94.30
22544;DHT22;11438;52.044;8.716;2022-09-09T07:34:31;21.10;94.20
22544;DHT22;11438;52.044;8.716;2022-09-09T07:36:57;21.10;94.00
22544;DHT22;11438;52.044;8.716;2022-09-09T07:39:23;21.20;93.90
22544;DHT22;11438;52.044;8.716;2022-09-09T07:41:49;21.20;93.60
22544;DHT22;11438;52.044;8.716;2022-09-09T07:44:22;21.30;93.60
22544;DHT22;11438;52.044;8.716;2022-09-09T07:46:48;21.30;93.50
22544;DHT22;11438;52.044;8.716;2022-09-09T07:49:14;21.30;93.50
22544;DHT22;11438;52.044;8.716;2022-09-09T07:51:43;21.30;93.40
22544;DHT22;11438;52.044;8.716;2022-09-09T07:54:12;21.40;93.40
22544;DHT22;11438;52.044;8.716;2022-09-09T07:56:39;21.40;93.60
22544;DHT22;11438;52.044;8.716;2022-09-09T07:59:04;21.40;93.40
22544;DHT22;11438;52.044;8.716;2022-09-09T08:04:01;21.50;93.20
22544;DHT22;11438;52.044;8.716;2022-09-09T08:06:29;21.60;93.20
22544;DHT22;11438;52.044;8.716;2022-09-09T08:08:56;21.60;93.30
22544;DHT22;11438;52.044;8.716;2022-09-09T08:11:23;21.70;93.40
22544;DHT22;11438;52.044;8.716;2022-09-09T08:13:50;21.70;93.20
22544;DHT22;11438;52.044;8.716;2022-09-09T08:16:19;21.80;93.60
22544;DHT22;11438;52.044;8.716;2022-09-09T08:18:50;21.80;93.20
22544;DHT22;11438;52.044;8.716;2022-09-09T08:21:19;21.90;93.00
22544;DHT22;11438;52.044;8.716;2022-09-09T08:23:46;21.90;92.90
22544;DHT22;11438;52.044;8.716;2022-09-09T08:26:17;22.00;92.90
22544;DHT22;11438;52.044;8.716;2022-09-09T08:28:46;22.00;93.00
22544;DHT22;11438;52.044;8.716;2022-09-09T08:31:21;22.10;92.90
22544;DHT22;11438;52.044;8.716;2022-09-09T08:33:47;22.20;92.60
22544;DHT22;11438;52.044;8.716;2022-09-09T08:36:16;22.30;92.50
22544;DHT22;11438;52.044;8.716;2022-09-09T08:38:42;22.30;92.30
22544;DHT22;11438;52.044;8.716;2022-09-09T08:44:09;22.40;92.00
22544;DHT22;11438;52.044;8.716;2022-09-09T08:47:05;22.50;91.80
22544;DHT22;11438;52.044;8.716;2022-09-09T08:52:25;22.70;92.00
22544;DHT22;11438;52.044;8.716;2022-09-09T08:54:55;22.70;91.20
22544;DHT22;11438;52.044;8.716;2022-09-09T08:57:26;22.80;91.20
22544;DHT22;11438;52.044;8.716;2022-09-09T08:59:54;22.80;91.10
22544;DHT22;11438;52.044;8.716;2022-09-09T09:05:37;23.00;90.50
22544;DHT22;11438;52.044;8.716;2022-09-09T09:08:44;23.10;90.90
22544;DHT22;11438;52.044;8.716;2022-09-09T09:11:10;23.10;90.90
22544;DHT22;11438;52.044;8.716;2022-09-09T09:14:03;23.20;90.40
22544;DHT22;11438;52.044;8.716;2022-09-09T09:18:57;23.30;89.30
22544;DHT22;11438;52.044;8.716;2022-09-09T09:24:00;23.40;89.00
22544;DHT22;11438;52.044;8.716;2022-09-09T09:26:35;23.50;89.20
22544;DHT22;11438;52.044;8.716;2022-09-09T09:29:12;23.40;88.80
22544;DHT22;11438;52.044;8.716;2022-09-09T09:31:38;23.50;88.80
22544;DHT22;11438;52.044;8.716;2022-09-09T09:34:03;23.50;89.20
22544;DHT22;11438;52.044;8.716;2022-09-09T09:36:44;23.50;89.30
22544;DHT22;11438;52.044;8.716;2022-09-09T09:39:26;23.60;88.40
22544;DHT22;11438;52.044;8.716;2022-09-09T09:41:52;23.70;87.90
22544;DHT22;11438;52.044;8.716;2022-09-09T09:44:37;23.70;86.20
22544;DHT22;11438;52.044;8.716;2022-09-09T09:47:11;23.80;85.50
22544;DHT22;11438;52.044;8.716;2022-09-09T09:49:38;23.90;84.30
22544;DHT22;11438;52.044;8.716;2022-09-09T09:52:06;23.90;83.80
22544;DHT22;11438;52.044;8.716;2022-09-09T09:54:41;23.90;83.40
22544;DHT22;11438;52.044;8.716;2022-09-09T09:57:16;23.90;83.30
22544;DHT22;11438;52.044;8.716;2022-09-09T09:59:43;23.90;83.30
22544;DHT22;11438;52.044;8.716;2022-09-09T10:02:20;23.90;83.70
22544;DHT22;11438;52.044;8.716;2022-09-09T10:04:46;23.90;83.70
22544;DHT22;11438;52.044;8.716;2022-09-09T10:07:17;23.90;84.30
22544;DHT22;11438;52.044;8.716;2022-09-09T10:09:43;23.80;84.00
22544;DHT22;11438;52.044;8.716;2022-09-09T10:12:42;23.80;83.90
22544;DHT22;11438;52.044;8.716;2022-09-09T10:15:36;23.70;83.60
22544;DHT22;11438;52.044;8.716;2022-09-09T10:21:11;23.70;82.70
22544;DHT22;11438;52.044;8.716;2022-09-09T10:29:38;23.50;83.90
22544;DHT22;11438;52.044;8.716;2022-09-09T10:32:26;23.50;83.50
22544;DHT22;11438;52.044;8.716;2022-09-09T10:43:36;23.60;84.60
22544;DHT22;11438;52.044;8.716;2022-09-09T10:46:29;23.70;83.30
22544;DHT22;11438;52.044;8.716;2022-09-09T10:52:01;23.90;81.30
22544;DHT22;11438;52.044;8.716;2022-09-09T10:57:11;24.00;80.10
22544;DHT22;11438;52.044;8.716;2022-09-09T10:59:43;24.10;80.00
22544;DHT22;11438;52.044;8.716;2022-09-09T11:02:22;24.10;79.60
22544;DHT22;11438;52.044;8.716;2022-09-09T11:05:19;24.10;79.40
22544;DHT22;11438;52.044;8.716;2022-09-09T11:07:50;24.20;79.20
22544;DHT22;11438;52.044;8.716;2022-09-09T11:10:28;24.20;78.80
22544;DHT22;11438;52.044;8.716;2022-09-09T11:13:01;24.20;78.60
22544;DHT22;11438;52.044;8.716;2022-09-09T11:15:41;24.30;78.30
22544;DHT22;11438;52.044;8.716;2022-09-09T11:18:14;24.20;78.90
22544;DHT22;11438;52.044;8.716;2022-09-09T11:20:44;24.30;78.90
22544;DHT22;11438;52.044;8.716;2022-09-09T11:23:15;24.30;78.50
22544;DHT22;11438;52.044;8.716;2022-09-09T11:25:52;24.30;78.80
22544;DHT22;11438;52.044;8.716;2022-09-09T11:28:55;24.30;78.10
22544;DHT22;11438;52.044;8.716;2022-09-09T11:34:27;24.30;77.70
22544;DHT22;11438;52.044;8.716;2022-09-09T11:37:12;24.30;77.90
22544;DHT22;11438;52.044;8.716;2022-09-09T11:44:41;24.40;77.20
22544;DHT22;11438;52.044;8.716;2022-09-09T11:47:26;24.40;77.20
22544;DHT22;11438;52.044;8.716;2022-09-09T11:52:42;24.40;78.30
22544;DHT22;11438;52.044;8.716;2022-09-09T11:55:32;24.50;78.40
22544;DHT22;11438;52.044;8.716;2022-09-09T11:58:03;24.50;78.60
22544;DHT22;11438;52.044;8.716;2022-09-09T12:02:55;24.60;77.50
22544;DHT22;11438;52.044;8.716;2022-09-09T12:05:20;24.60;77.10
22544;DHT22;11438;52.044;8.716;2022-09-09T12:07:52;24.60;77.20
22544;DHT22;11438;52.044;8.716;2022-09-09T12:10:27;24.60;75.90
22544;DHT22;11438;52.044;8.716;2022-09-09T12:12:54;24.60;76.30
22544;DHT22;11438;52.044;8.716;2022-09-09T12:15:21;24.60;76.20
22544;DHT22;11438;52.044;8.716;2022-09-09T12:17:50;24.60;76.40
22544;DHT22;11438;52.044;8.716;2022-09-09T12:20:17;24.60;76.50
22544;DHT22;11438;52.044;8.716;2022-09-09T12:25:53;24.60;76.20
22544;DHT22;11438;52.044;8.716;2022-09-09T12:28:52;24.60;76.30
22544;DHT22;11438;52.044;8.716;2022-09-09T12:31:25;24.70;76.70
22544;DHT22;11438;52.044;8.716;2022-09-09T12:33:53;24.70;77.00
22544;DHT22;11438;52.044;8.716;2022-09-09T12:36:24;24.80;76.50
22544;DHT22;11438;52.044;8.716;2022-09-09T12:38:53;24.80;76.20
22544;DHT22;11438;52.044;8.716;2022-09-09T12:41:27;24.90;75.60
22544;DHT22;11438;52.044;8.716;2022-09-09T12:44:09;24.90;74.00
22544;DHT22;11438;52.044;8.716;2022-09-09T12:46:39;24.90;73.80
22544;DHT22;11438;52.044;8.716;2022-09-09T12:49:18;25.00;73.10
22544;DHT22;11438;52.044;8.716;2022-09-09T12:51:49;25.00;73.40
22544;DHT22;11438;52.044;8.716;2022-09-09T12:54:15;25.10;73.10
22544;DHT22;11438;52.044;8.716;2022-09-09T12:56:45;25.20;72.10
22544;DHT22;11438;52.044;8.716;2022-09-09T12:59:23;25.20;71.30
22544;DHT22;11438;52.044;8.716;2022-09-09T13:01:56;25.30;71.20
22544;DHT22;11438;52.044;8.716;2022-09-09T13:04:22;25.30;71.60
22544;DHT22;11438;52.044;8.716;2022-09-09T13:06:47;25.40;71.20
22544;DHT22;11438;52.044;8.716;2022-09-09T13:09:14;25.40;71.20
22544;DHT22;11438;52.044;8.716;2022-09-09T13:11:41;25.40;71.40
22544;DHT22;11438;52.044;8.716;2022-09-09T13:14:19;25.50;71.50
22544;DHT22;11438;52.044;8.716;2022-09-09T13:16:56;25.50;70.40
22544;DHT22;11438;52.044;8.716;2022-09-09T13:19:22;25.50;69.70
22544;DHT22;11438;52.044;8.716;2022-09-09T13:21:51;25.60;69.80
22544;DHT22;11438;52.044;8.716;2022-09-09T13:24:28;25.60;70.20
22544;DHT22;11438;52.044;8.716;2022-09-09T13:27:00;25.70;70.20
22544;DHT22;11438;52.044;8.716;2022-09-09T13:29:30;25.70;70.10
22544;DHT22;11438;52.044;8.716;2022-09-09T13:32:12;25.70;69.40
22544;DHT22;11438;52.044;8.716;2022-09-09T13:34:51;25.80;69.40
22544;DHT22;11438;52.044;8.716;2022-09-09T13:37:35;25.80;68.80
22544;DHT22;11438;52.044;8.716;2022-09-09T13:40:03;25.90;69.30
22544;DHT22;11438;52.044;8.716;2022-09-09T13:42:32;25.90;69.00
22544;DHT22;11438;52.044;8.716;2022-09-09T13:45:00;25.90;68.90
22544;DHT22;11438;52.044;8.716;2022-09-09T13:47:32;25.90;68.30
22544;DHT22;11438;52.044;8.716;2022-09-09T13:50:09;25.90;68.80
22544;DHT22;11438;52.044;8.716;2022-09-09T13:52:34;26.00;69.20
22544;DHT22;11438;52.044;8.716;2022-09-09T13:55:00;26.00;69.10
22544;DHT22;11438;52.044;8.716;2022-09-09T13:57:26;26.00;69.30
22544;DHT22;11438;52.044;8.716;2022-09-09T13:59:53;26.00;69.10
22544;DHT22;11438;52.044;8.716;2022-09-09T14:02:20;26.00;69.70
22544;DHT22;11438;52.044;8.716;2022-09-09T14:04:48;26.10;69.80
22544;DHT22;11438;52.044;8.716;2022-09-09T14:07:17;26.10;70.00
22544;DHT22;11438;52.044;8.716;2022-09-09T14:09:43;26.10;70.10
22544;DHT22;11438;52.044;8.716;2022-09-09T14:12:12;26.20;70.20
22544;DHT22;11438;52.044;8.716;2022-09-09T14:14:38;26.20;69.80
22544;DHT22;11438;52.044;8.716;2022-09-09T14:17:04;26.30;70.30
22544;DHT22;11438;52.044;8.716;2022-09-09T14:19:29;26.30;70.40
22544;DHT22;11438;52.044;8.716;2022-09-09T14:21:56;26.30;70.30
22544;DHT22;11438;52.044;8.716;2022-09-09T14:24:22;26.30;70.10
22544;DHT22;11438;52.044;8.716;2022-09-09T14:26:48;26.30;70.60
22544;DHT22;11438;52.044;8.716;2022-09-09T14:29:13;26.40;70.10
22544;DHT22;11438;52.044;8.716;2022-09-09T14:31:39;26.40;70.20
22544;DHT22;11438;52.044;8.716;2022-09-09T14:34:04;26.40;69.40
22544;DHT22;11438;52.044;8.716;2022-09-09T14:36:31;26.40;69.00
22544;DHT22;11438;52.044;8.716;2022-09-09T14:38:57;26.50;67.60
22544;DHT22;11438;52.044;8.716;2022-09-09T14:41:22;26.50;66.60
22544;DHT22;11438;52.044;8.716;2022-09-09T14:43:49;26.50;66.40
22544;DHT22;11438;52.044;8.716;2022-09-09T14:46:16;26.40;66.00
22544;DHT22;11438;52.044;8.716;2022-09-09T14:48:42;26.40;65.90
22544;DHT22;11438;52.044;8.716;2022-09-09T14:51:12;26.40;66.10
22544;DHT22;11438;52.044;8.716;2022-09-09T14:53:41;26.40;65.90
22544;DHT22;11438;52.044;8.716;2022-09-09T14:56:13;26.30;65.60
22544;DHT22;11438;52.044;8.716;2022-09-09T14:58:39;26.30;63.70
22544;DHT22;11438;52.044;8.716;2022-09-09T15:01:07;26.30;64.80
22544;DHT22;11438;52.044;8.716;2022-09-09T15:03:33;26.30;64.60
22544;DHT22;11438;52.044;8.716;2022-09-09T15:06:08;26.30;65.00
22544;DHT22;11438;52.044;8.716;2022-09-09T15:08:39;26.20;63.40
22544;DHT22;11438;52.044;8.716;2022-09-09T15:11:06;26.20;63.30
22544;DHT22;11438;52.044;8.716;2022-09-09T15:13:36;26.20;63.40
22544;DHT22;11438;52.044;8.716;2022-09-09T15:16:12;26.20;63.10
22544;DHT22;11438;52.044;8.716;2022-09-09T15:18:38;26.20;63.30
22544;DHT22;11438;52.044;8.716;2022-09-09T15:21:27;26.10;62.80
22544;DHT22;11438;52.044;8.716;2022-09-09T15:23:52;26.10;62.80
22544;DHT22;11438;52.044;8.716;2022-09-09T15:26:19;26.10;62.00
22544;DHT22;11438;52.044;8.716;2022-09-09T15:28:46;26.00;61.80
22544;DHT22;11438;52.044;8.716;2022-09-09T15:31:21;26.00;62.80
22544;DHT22;11438;52.044;8.716;2022-09-09T15:38:41;26.00;62.30
22544;DHT22;11438;52.044;8.716;2022-09-09T15:41:07;26.00;63.00
22544;DHT22;11438;52.044;8.716;2022-09-09T15:43:32;26.00;63.60
22544;DHT22;11438;52.044;8.716;2022-09-09T15:46:08;26.10;62.60
22544;DHT22;11438;52.044;8.716;2022-09-09T15:48:44;26.00;63.00
22544;DHT22;11438;52.044;8.716;2022-09-09T15:51:10;26.00;62.00
22544;DHT22;11438;52.044;8.716;2022-09-09T15:53:40;26.00;62.80
22544;DHT22;11438;52.044;8.716;2022-09-09T15:56:06;26.00;63.00
22544;DHT22;11438;52.044;8.716;2022-09-09T15:58:35;26.00;63.90
22544;DHT22;11438;52.044;8.716;2022-09-09T16:01:09;26.00;63.40
22544;DHT22;11438;52.044;8.716;2022-09-09T16:03:36;25.90;63.70
22544;DHT22;11438;52.044;8.716;2022-09-09T16:06:03;25.90;63.40
22544;DHT22;11438;52.044;8.716;2022-09-09T16:08:33;25.90;63.60
22544;DHT22;11438;52.044;8.716;2022-09-09T16:11:09;25.80;64.00
22544;DHT22;11438;52.044;8.716;2022-09-09T16:13:36;25.80;64.60
22544;DHT22;11438;52.044;8.716;2022-09-09T16:16:03;25.80;64.90
22544;DHT22;11438;52.044;8.716;2022-09-09T16:18:37;25.80;65.20
22544;DHT22;11438;52.044;8.716;2022-09-09T16:21:04;25.80;65.80
22544;DHT22;11438;52.044;8.716;2022-09-09T16:23:31;25.80;65.40
22544;DHT22;11438;52.044;8.716;2022-09-09T16:25:57;25.70;65.70
22544;DHT22;11438;52.044;8.716;2022-09-09T16:28:23;25.70;66.60
22544;DHT22;11438;52.044;8.716;2022-09-09T16:30:48;25.70;67.60
22544;DHT22;11438;52.044;8.716;2022-09-09T16:33:15;25.60;67.20
22544;DHT22;11438;52.044;8.716;2022-09-09T16:35:41;25.60;67.40
22544;DHT22;11438;52.044;8.716;2022-09-09T16:38:07;25.60;67.60
22544;DHT22;11438;52.044;8.716;2022-09-09T16:40:36;25.50;67.70
22544;DHT22;11438;52.044;8.716;2022-09-09T16:43:03;25.50;68.10
22544;DHT22;11438;52.044;8.716;2022-09-09T16:45:29;25.40;69.90
22544;DHT22;11438;52.044;8.716;2022-09-09T16:47:55;25.40;71.60
22544;DHT22;11438;52.044;8.716;2022-09-09T16:50:20;25.30;70.80
22544;DHT22;11438;52.044;8.716;2022-09-09T16:52:46;25.20;72.10
22544;DHT22;11438;52.044;8.716;2022-09-09T16:55:12;25.10;71.80
22544;DHT22;11438;52.044;8.716;2022-09-09T16:57:37;25.00;72.40
22544;DHT22;11438;52.044;8.716;2022-09-09T17:00:04;24.90;70.90
22544;DHT22;11438;52.044;8.716;2022-09-09T17:02:31;24.70;72.20
22544;DHT22;11438;52.044;8.716;2022-09-09T17:04:56;24.50;72.40
22544;DHT22;11438;52.044;8.716;2022-09-09T17:07:22;24.50;73.80
22544;DHT22;11438;52.044;8.716;2022-09-09T17:09:48;24.30;74.20
22544;DHT22;11438;52.044;8.716;2022-09-09T17:12:14;24.20;74.90
22544;DHT22;11438;52.044;8.716;2022-09-09T17:14:41;24.20;75.80
22544;DHT22;11438;52.044;8.716;2022-09-09T17:17:07;24.00;76.60
22544;DHT22;11438;52.044;8.716;2022-09-09T17:19:33;23.90;77.10
22544;DHT22;11438;52.044;8.716;2022-09-09T17:21:59;23.80;77.70